Time;durP1;ratioP1;P1;durP2;ratioP2;P2;SDS_P1;SDS_P2;PMS_P1;PMS_P2;Temp;Humidity;BMP_temperature;BMP_pressure;BME280_temperature;BME280_humidity;BME280_pressure;Samples;Min_cycle;Max_cycle;Signal;HPM_P1;HPM_P2
2022/04/03 00:00:34;;;;;;;10.75;5.05;;;-0.70;99.90;;;;;;4914224;29;20051;-79
2022/04/03 00:03:01;;;;;;;12.25;5.55;;;-0.70;99.90;;;;;;4931839;29;20498;-79
2022/04/03 00:05:27;;;;;;;9.43;4.82;;;-0.70;99.90;;;;;;4932443;29;20512;-79
2022/04/03 00:07:54;;;;;;;9.48;4.82;;;-0.80;99.90;;;;;;4914648;29;20052;-79
2022/04/03 00:10:20;;;;;;;11.07;5.15;;;-0.80;99.90;;;;;;4932177;29;20416;-79
2022/04/03 00:12:47;;;;;;;10.10;4.82;;;-0.80;99.90;;;;;;4915832;29;20051;-79
2022/04/03 00:15:15;;;;;;;10.48;5.03;;;-0.90;99.90;;;;;;4912296;29;20381;-78
2022/04/03 00:17:41;;;;;;;11.45;4.85;;;-0.90;99.90;;;;;;4915206;29;20060;-78
2022/04/03 00:20:08;;;;;;;11.25;5.38;;;-0.90;99.90;;;;;;4915235;29;20059;-79
2022/04/03 00:22:34;;;;;;;7.25;4.05;;;-1.00;99.90;;;;;;4915511;29;20054;-79
2022/04/03 00:25:00;;;;;;;10.18;5.28;;;-1.00;99.90;;;;;;4946531;29;20090;-79
2022/04/03 00:27:26;;;;;;;8.73;4.20;;;-1.00;99.90;;;;;;4915659;29;20079;-79
2022/04/03 00:29:52;;;;;;;10.90;4.70;;;-1.00;99.90;;;;;;4913589;29;20059;-78
2022/04/03 00:32:18;;;;;;;10.82;4.70;;;-1.00;99.90;;;;;;4946709;29;20091;-79
2022/04/03 00:34:44;;;;;;;9.02;4.60;;;-1.10;99.90;;;;;;4931084;29;20048;-79
2022/04/03 00:37:10;;;;;;;7.63;4.20;;;-1.10;99.90;;;;;;4913402;29;20126;-78
2022/04/03 00:39:35;;;;;;;13.75;4.20;;;-1.10;99.90;;;;;;4947277;29;20492;-79
2022/04/03 00:42:03;;;;;;;7.55;4.18;;;-1.10;99.90;;;;;;4914595;29;20471;-78
2022/04/03 00:44:30;;;;;;;12.65;4.97;;;-1.10;99.90;;;;;;4913711;29;20053;-78
2022/04/03 00:46:57;;;;;;;11.00;4.03;;;-1.20;99.90;;;;;;4914728;29;20047;-79
2022/04/03 00:49:23;;;;;;;6.90;4.18;;;-1.20;99.90;;;;;;4929879;29;20456;-78
2022/04/03 00:51:48;;;;;;;11.40;4.32;;;-1.30;99.90;;;;;;4913876;29;20142;-78
2022/04/03 00:54:14;;;;;;;9.30;3.90;;;-1.30;99.90;;;;;;4945634;29;20062;-78
2022/04/03 00:56:40;;;;;;;9.95;3.88;;;-1.30;99.90;;;;;;4914019;29;20138;-79
2022/04/03 00:59:06;;;;;;;10.25;3.95;;;-1.30;99.90;;;;;;4913466;29;20059;-79
2022/04/03 01:01:32;;;;;;;9.35;5.00;;;-1.30;99.90;;;;;;4914541;29;20043;-78
2022/04/03 01:03:59;;;;;;;7.97;3.85;;;-1.40;99.90;;;;;;4914334;29;20062;-79
2022/04/03 01:06:24;;;;;;;11.88;4.47;;;-1.40;99.90;;;;;;4914163;29;20119;-78
2022/04/03 01:08:50;;;;;;;8.27;4.13;;;-1.50;99.90;;;;;;4914503;29;20495;-79
2022/04/03 01:11:21;;;;;;;7.85;3.72;;;-1.50;99.90;;;;;;4913277;29;20051;-78
2022/04/03 01:13:49;;;;;;;8.02;4.07;;;-1.50;99.90;;;;;;4929814;29;20051;-78
2022/04/03 01:16:15;;;;;;;8.38;3.47;;;-1.60;99.90;;;;;;4945599;28;20071;-79
2022/04/03 01:18:40;;;;;;;7.30;3.30;;;-1.70;99.90;;;;;;4913880;29;20055;-79
2022/04/03 01:21:06;;;;;;;6.47;2.92;;;-1.70;99.90;;;;;;4945410;29;20071;-79
2022/04/03 01:23:32;;;;;;;7.10;2.95;;;-1.70;99.90;;;;;;4913795;29;20131;-79
2022/04/03 01:25:58;;;;;;;8.40;3.33;;;-1.70;99.90;;;;;;4930494;29;20408;-79
2022/04/03 01:28:24;;;;;;;8.02;3.15;;;-1.80;99.90;;;;;;4913024;29;20048;-79
2022/04/03 01:30:50;;;;;;;5.20;3.00;;;-1.80;99.90;;;;;;4913455;29;20070;-79
2022/04/03 01:33:16;;;;;;;9.05;3.53;;;-1.80;99.90;;;;;;4944580;29;20477;-79
2022/04/03 01:35:43;;;;;;;10.57;3.50;;;-1.80;99.90;;;;;;4914012;29;20044;-79
2022/04/03 01:38:08;;;;;;;6.40;3.55;;;-1.20;99.90;;;;;;4929239;29;20413;-79
2022/04/03 01:40:35;;;;;;;5.97;3.30;;;-1.80;99.90;;;;;;4931992;29;20043;-79
2022/04/03 01:43:04;;;;;;;9.20;3.30;;;-1.80;99.90;;;;;;4932867;29;20043;-79
2022/04/03 01:45:29;;;;;;;6.60;3.10;;;-1.90;99.90;;;;;;4947317;29;20044;-78
2022/04/03 01:47:55;;;;;;;8.95;2.97;;;-1.80;99.90;;;;;;4932183;29;20054;-78
2022/04/03 01:50:21;;;;;;;6.30;3.22;;;-1.70;99.90;;;;;;4932169;29;20047;-78
2022/04/03 01:52:46;;;;;;;8.80;2.88;;;-1.70;99.90;;;;;;4948620;29;20087;-79
2022/04/03 01:55:12;;;;;;;5.90;3.45;;;-1.70;99.90;;;;;;4931351;29;20043;-79
2022/04/03 01:57:38;;;;;;;9.20;3.83;;;-1.60;99.90;;;;;;4948387;29;20039;-79
2022/04/03 02:00:06;;;;;;;6.20;3.40;;;-1.60;99.90;;;;;;4946735;29;20039;-79
2022/04/03 02:02:33;;;;;;;6.70;3.40;;;-1.50;99.90;;;;;;4948639;29;20051;-79
2022/04/03 02:04:58;;;;;;;5.03;2.97;;;-1.50;99.90;;;;;;4948003;28;20104;-78
2022/04/03 02:07:25;;;;;;;7.35;3.55;;;-1.50;99.90;;;;;;4931635;29;20134;-78
2022/04/03 02:09:52;;;;;;;6.25;3.05;;;-1.40;99.90;;;;;;4947899;29;20129;-79
2022/04/03 02:12:17;;;;;;;7.68;3.85;;;-1.40;99.90;;;;;;4964384;28;20506;-79
2022/04/03 02:14:44;;;;;;;7.10;3.60;;;-1.30;99.90;;;;;;4962785;28;20133;-79
2022/04/03 02:17:13;;;;;;;6.68;3.03;;;-1.20;99.90;;;;;;4929159;29;20055;-79
2022/04/03 02:19:39;;;;;;;8.25;3.30;;;-1.10;99.90;;;;;;4913374;29;20115;-79
2022/04/03 02:22:04;;;;;;;11.70;3.90;;;-1.00;99.90;;;;;;4912722;29;20047;-78
2022/04/03 02:24:30;;;;;;;6.28;3.20;;;-0.90;99.90;;;;;;4913276;29;20516;-78
2022/04/03 02:26:56;;;;;;;10.25;3.75;;;-0.80;99.90;;;;;;4929135;29;20091;-78
2022/04/03 02:29:23;;;;;;;8.10;3.63;;;-0.70;99.90;;;;;;4927560;29;20035;-79
2022/04/03 02:31:48;;;;;;;7.45;3.47;;;-0.60;99.90;;;;;;4913560;29;20134;-78
2022/04/03 02:34:14;;;;;;;8.07;3.33;;;-0.50;99.90;;;;;;4912828;29;20128;-78
2022/04/03 02:36:42;;;;;;;6.75;3.38;;;-0.40;99.90;;;;;;4912970;29;20130;-78
2022/04/03 02:39:08;;;;;;;10.15;3.25;;;-0.30;99.90;;;;;;4945971;28;20110;-78
2022/04/03 02:41:34;;;;;;;6.38;3.17;;;-0.30;99.90;;;;;;4917816;29;20052;-78
2022/04/03 02:44:00;;;;;;;9.82;2.70;;;-0.20;99.90;;;;;;4915038;29;20107;-79
2022/04/03 02:46:25;;;;;;;7.00;2.95;;;-0.10;99.90;;;;;;4917484;29;20047;-79
2022/04/03 02:48:51;;;;;;;5.95;2.90;;;-0.10;99.90;;;;;;4933124;29;20487;-79
2022/04/03 02:51:17;;;;;;;6.75;2.45;;;0.00;99.90;;;;;;4915929;29;20044;-79
2022/04/03 02:53:43;;;;;;;8.77;2.33;;;0.10;99.90;;;;;;4949237;28;20062;-80
2022/04/03 02:56:09;;;;;;;5.28;1.70;;;0.30;99.90;;;;;;4916016;29;20052;-79
2022/04/03 02:58:34;;;;;;;4.75;1.70;;;0.40;99.90;;;;;;4917606;29;20091;-79
2022/04/03 03:01:00;;;;;;;3.40;1.20;;;0.50;99.90;;;;;;4916258;29;20043;-80
2022/04/03 03:03:26;;;;;;;4.65;1.48;;;0.50;99.90;;;;;;4916306;29;20048;-80
2022/04/03 03:05:51;;;;;;;2.83;1.10;;;0.50;99.90;;;;;;4917310;29;20050;-83
2022/04/03 03:08:18;;;;;;;4.15;1.10;;;0.60;99.90;;;;;;4916795;29;20058;-82
2022/04/03 03:10:43;;;;;;;4.03;0.90;;;0.50;99.90;;;;;;4948199;29;20061;-82
2022/04/03 03:13:09;;;;;;;3.47;1.17;;;0.60;99.90;;;;;;4916540;29;20055;-80
2022/04/03 03:15:35;;;;;;;3.42;1.00;;;0.60;99.90;;;;;;4922178;29;20055;-81
2022/04/03 03:18:00;;;;;;;2.45;0.90;;;0.60;99.90;;;;;;4935196;29;20081;-80
2022/04/03 03:20:26;;;;;;;5.03;0.95;;;0.60;99.90;;;;;;4919753;29;20090;-81
2022/04/03 03:22:52;;;;;;;4.18;0.98;;;0.60;99.90;;;;;;4936222;29;20078;-81
2022/04/03 03:25:18;;;;;;;3.40;1.20;;;0.60;99.90;;;;;;4966323;28;20097;-80
2022/04/03 03:27:44;;;;;;;4.45;0.90;;;0.60;99.90;;;;;;4919488;29;20118;-80
2022/04/03 03:30:11;;;;;;;2.83;1.05;;;0.60;99.90;;;;;;4950575;29;20050;-80
2022/04/03 03:32:37;;;;;;;2.22;0.95;;;0.60;99.90;;;;;;4966593;28;20150;-81
2022/04/03 03:35:04;;;;;;;4.55;0.93;;;0.50;99.90;;;;;;4918807;29;20129;-80
2022/04/03 03:37:29;;;;;;;1.90;0.68;;;0.50;99.90;;;;;;4967220;28;20395;-81
2022/04/03 03:39:55;;;;;;;4.65;0.93;;;0.50;99.90;;;;;;4965771;28;20058;-80
2022/04/03 03:42:21;;;;;;;3.25;1.00;;;0.50;99.90;;;;;;4935132;29;20047;-81
2022/04/03 03:44:46;;;;;;;2.13;0.95;;;0.50;99.90;;;;;;4966147;28;20051;-81
2022/04/03 03:47:13;;;;;;;4.10;1.10;;;0.50;99.90;;;;;;4965934;28;20154;-81
2022/04/03 03:49:39;;;;;;;5.22;1.30;;;0.50;99.90;;;;;;4934531;29;20039;-81
2022/04/03 03:52:05;;;;;;;2.38;0.93;;;0.40;99.90;;;;;;4917786;29;20047;-80
2022/04/03 03:54:31;;;;;;;3.40;1.33;;;0.40;99.90;;;;;;4966133;28;20491;-81
2022/04/03 03:56:58;;;;;;;6.35;1.20;;;0.30;99.90;;;;;;4934734;29;20043;-81
2022/04/03 03:59:24;;;;;;;5.57;1.30;;;0.30;99.90;;;;;;4965570;28;20389;-81
2022/04/03 04:01:50;;;;;;;2.33;1.42;;;0.30;99.90;;;;;;4966559;28;20122;-81
2022/04/03 04:04:16;;;;;;;2.55;1.48;;;0.20;99.90;;;;;;4933816;29;20185;-81
2022/04/03 04:06:42;;;;;;;3.08;1.65;;;0.20;99.90;;;;;;4966270;28;20047;-80
2022/04/03 04:09:07;;;;;;;5.38;1.80;;;0.20;99.90;;;;;;4917749;29;20039;-80
2022/04/03 04:11:34;;;;;;;4.75;1.77;;;0.20;99.90;;;;;;4950941;29;20482;-80
2022/04/03 04:14:00;;;;;;;3.55;1.75;;;0.20;99.90;;;;;;4932908;29;20082;-80
2022/04/03 04:16:25;;;;;;;4.38;1.65;;;0.20;99.90;;;;;;4965966;28;20102;-81
2022/04/03 04:18:52;;;;;;;5.25;1.92;;;0.20;99.90;;;;;;4950496;29;20055;-80
2022/04/03 04:21:18;;;;;;;6.47;2.15;;;0.20;99.90;;;;;;4933310;29;20110;-80
2022/04/03 04:23:43;;;;;;;4.15;2.05;;;0.20;99.90;;;;;;4950617;29;20518;-80
2022/04/03 04:26:09;;;;;;;5.72;2.10;;;0.20;99.90;;;;;;4933979;29;20078;-79
2022/04/03 04:28:36;;;;;;;6.05;2.50;;;0.10;99.90;;;;;;4949411;29;20054;-79
2022/04/03 04:31:01;;;;;;;4.78;1.95;;;0.10;99.90;;;;;;4933081;29;20062;-80
2022/04/03 04:33:27;;;;;;;4.53;2.17;;;0.10;99.90;;;;;;4933922;29;20390;-80
2022/04/03 04:35:52;;;;;;;8.65;2.63;;;0.10;99.90;;;;;;4933416;29;20047;-79
2022/04/03 04:38:19;;;;;;;4.75;2.45;;;0.10;99.90;;;;;;4934285;29;20051;-79
2022/04/03 04:40:45;;;;;;;4.20;2.22;;;0.10;99.90;;;;;;4966248;28;20061;-81
2022/04/03 04:43:11;;;;;;;5.45;2.05;;;1.20;99.90;;;;;;4949143;29;20183;-80
2022/04/03 04:45:36;;;;;;;6.78;2.22;;;0.00;99.90;;;;;;4933040;29;20051;-80
2022/04/03 04:48:03;;;;;;;5.20;2.47;;;0.00;99.90;;;;;;4934052;29;20058;-80
2022/04/03 04:50:30;;;;;;;3.72;2.03;;;0.00;99.90;;;;;;4932740;29;20047;-80
2022/04/03 04:52:57;;;;;;;6.10;2.35;;;-0.10;99.90;;;;;;4934073;29;20051;-80
2022/04/03 04:55:24;;;;;;;5.13;2.20;;;-0.10;99.90;;;;;;4933155;29;20059;-80
2022/04/03 04:57:51;;;;;;;3.33;2.08;;;-0.30;99.90;;;;;;4965645;28;20073;-80
2022/04/03 05:00:17;;;;;;;4.40;2.15;;;-0.30;99.90;;;;;;4964653;28;20047;-80
2022/04/03 05:02:46;;;;;;;9.85;2.10;;;-0.40;99.90;;;;;;4965167;28;20047;-80
2022/04/03 05:05:14;;;;;;;7.45;2.50;;;-0.40;99.90;;;;;;4964653;28;20479;-79
2022/04/03 05:07:40;;;;;;;8.95;2.58;;;-0.50;99.90;;;;;;4965545;28;20048;-79
2022/04/03 05:10:07;;;;;;;4.45;2.00;;;-0.50;99.90;;;;;;4964392;28;20055;-80
2022/04/03 05:12:34;;;;;;;4.45;2.70;;;-0.50;99.90;;;;;;4965743;28;20097;-80
2022/04/03 05:15:01;;;;;;;6.78;2.35;;;-0.50;99.90;;;;;;4949577;28;20457;-80
2022/04/03 05:17:27;;;;;;;6.85;3.00;;;-0.50;99.90;;;;;;4948678;29;20059;-80
2022/04/03 05:19:54;;;;;;;4.07;2.35;;;-0.40;99.90;;;;;;4950187;29;20044;-79
2022/04/03 05:22:23;;;;;;;6.65;2.55;;;-0.40;99.90;;;;;;4949238;29;20063;-79
2022/04/03 05:24:50;;;;;;;5.07;2.47;;;-0.40;99.90;;;;;;4948045;29;20066;-78
2022/04/03 05:27:15;;;;;;;4.88;2.40;;;-0.40;99.90;;;;;;4950557;28;20106;-79
2022/04/03 05:29:41;;;;;;;5.72;2.70;;;-0.30;99.90;;;;;;4948253;29;20051;-78
2022/04/03 05:32:07;;;;;;;4.97;2.90;;;-0.20;99.90;;;;;;4949820;29;20510;-79
2022/04/03 05:34:33;;;;;;;6.28;2.65;;;-0.10;99.90;;;;;;4949145;29;20483;-79
2022/04/03 05:36:58;;;;;;;11.10;2.72;;;0.20;99.90;;;;;;4933031;29;20190;-79
2022/04/03 05:39:24;;;;;;;5.35;1.30;;;0.40;99.90;;;;;;4964106;28;20059;-79
2022/04/03 05:41:53;;;;;;;4.30;1.25;;;0.60;99.90;;;;;;4950535;29;20594;-79
2022/04/03 05:44:19;;;;;;;3.60;1.20;;;0.70;99.90;;;;;;4948056;29;20055;-80
2022/04/03 05:46:44;;;;;;;3.92;1.30;;;0.80;99.90;;;;;;4964387;28;20507;-79
2022/04/03 05:49:10;;;;;;;7.57;1.95;;;0.80;99.90;;;;;;4948211;29;20051;-79
2022/04/03 05:51:37;;;;;;;5.15;2.00;;;0.80;99.90;;;;;;4965498;28;20055;-79
2022/04/03 05:54:03;;;;;;;7.88;2.22;;;0.80;99.90;;;;;;4947579;29;20530;-80
2022/04/03 05:56:31;;;;;;;6.88;2.65;;;0.80;99.90;;;;;;4932972;29;20087;-79
2022/04/03 05:58:57;;;;;;;6.32;2.40;;;0.80;99.90;;;;;;4949166;29;20050;-80
2022/04/03 06:01:23;;;;;;;5.78;2.47;;;0.90;99.90;;;;;;4947711;29;20546;-80
2022/04/03 06:03:49;;;;;;;11.10;2.53;;;0.90;99.90;;;;;;4949227;29;20047;-80
2022/04/03 06:06:14;;;;;;;5.75;2.47;;;0.90;99.90;;;;;;4947507;29;20533;-80
2022/04/03 06:08:40;;;;;;;6.90;2.58;;;1.00;99.90;;;;;;4950374;29;20082;-80
2022/04/03 06:11:06;;;;;;;8.75;3.08;;;1.00;99.90;;;;;;4963914;28;20086;-80
2022/04/03 06:13:32;;;;;;;7.30;2.70;;;1.10;99.90;;;;;;4947911;28;20043;-79
2022/04/03 06:15:57;;;;;;;8.65;2.63;;;1.20;99.90;;;;;;4980019;28;20055;-80
2022/04/03 06:18:23;;;;;;;7.93;2.33;;;1.30;99.90;;;;;;4950595;28;20365;-80
2022/04/03 06:20:49;;;;;;;6.18;2.47;;;1.40;99.90;;;;;;4968478;28;20065;-78
2022/04/03 06:23:17;;;;;;;5.65;2.70;;;1.40;99.90;;;;;;4968660;28;20503;-79
2022/04/03 06:25:44;;;;;;;9.73;3.22;;;1.50;99.90;;;;;;4934574;28;20053;-78
2022/04/03 06:28:10;;;;;;;6.40;2.25;;;1.70;99.90;;;;;;4915393;29;20051;-78
2022/04/03 06:30:36;;;;;;;11.30;2.30;;;1.50;99.90;;;;;;4949269;28;20490;-80
2022/04/03 06:33:02;;;;;;;7.68;2.85;;;1.50;99.90;;;;;;4935497;28;20057;-79
2022/04/03 06:35:28;;;;;;;7.88;2.65;;;2.50;99.90;;;;;;4963225;28;20045;-79
2022/04/03 06:37:54;;;;;;;7.85;2.78;;;1.50;99.90;;;;;;4933138;28;20446;-79
2022/04/03 06:40:19;;;;;;;4.90;2.53;;;1.50;99.90;;;;;;4980516;28;20043;-78
2022/04/03 06:42:46;;;;;;;5.90;2.75;;;1.50;99.90;;;;;;4964670;28;20043;-79
2022/04/03 06:45:13;;;;;;;6.28;2.60;;;1.40;99.90;;;;;;4962996;28;20759;-79
2022/04/03 06:47:39;;;;;;;5.53;2.22;;;1.40;99.90;;;;;;4963776;28;20061;-79
2022/04/03 06:50:05;;;;;;;9.07;2.30;;;1.40;99.90;;;;;;4980491;28;20042;-79
2022/04/03 06:52:31;;;;;;;6.63;1.83;;;1.40;99.90;;;;;;4964871;28;20050;-80
2022/04/03 06:54:57;;;;;;;7.13;1.90;;;1.50;99.90;;;;;;4945772;29;20083;-79
2022/04/03 06:57:22;;;;;;;3.88;2.00;;;1.60;99.90;;;;;;4912942;29;20054;-79
2022/04/03 06:59:48;;;;;;;6.40;2.15;;;1.70;99.90;;;;;;4960628;28;20176;-80
2022/04/03 07:02:14;;;;;;;5.22;1.65;;;1.90;99.90;;;;;;4945343;29;20055;-80
2022/04/03 07:04:40;;;;;;;4.93;1.48;;;2.80;99.90;;;;;;4932128;28;20116;-80
2022/04/03 07:07:05;;;;;;;4.90;1.23;;;2.20;99.90;;;;;;4950234;28;20070;-79
2022/04/03 07:09:31;;;;;;;6.57;1.17;;;2.40;99.90;;;;;;4933133;28;20113;-81
2022/04/03 07:11:58;;;;;;;3.33;1.15;;;2.60;99.90;;;;;;4949879;28;20047;-80
2022/04/03 07:14:23;;;;;;;5.18;1.42;;;2.80;99.90;;;;;;4932921;28;20171;-80
2022/04/03 07:16:49;;;;;;;4.85;1.48;;;2.90;99.90;;;;;;4933418;28;20054;-81
2022/04/03 07:19:15;;;;;;;4.55;1.23;;;4.00;99.90;;;;;;4933643;28;20043;-81
2022/04/03 07:21:41;;;;;;;3.25;1.25;;;3.40;99.90;;;;;;4950073;28;20125;-81
2022/04/03 07:24:07;;;;;;;2.50;0.90;;;3.40;99.90;;;;;;4920627;28;20047;-81
2022/04/03 07:26:33;;;;;;;4.05;1.15;;;3.50;99.90;;;;;;4933254;29;20082;-81
2022/04/03 07:28:59;;;;;;;9.30;1.08;;;3.70;99.90;;;;;;4923268;28;20055;-81
2022/04/03 07:31:25;;;;;;;4.72;1.30;;;3.80;99.90;;;;;;4937805;28;20047;-80
2022/04/03 07:33:51;;;;;;;5.55;1.13;;;4.10;99.90;;;;;;4938481;28;20051;-81
2022/04/03 07:36:17;;;;;;;2.13;0.95;;;3.80;99.90;;;;;;4937620;28;20137;-81
2022/04/03 07:38:43;;;;;;;1.73;0.60;;;3.90;99.90;;;;;;4937792;28;20174;-82
2022/04/03 07:41:09;;;;;;;5.82;1.33;;;4.00;99.90;;;;;;4937660;28;20533;-81
2022/04/03 07:43:35;;;;;;;4.03;0.95;;;4.00;99.90;;;;;;4924126;29;20055;-81
2022/04/03 07:46:01;;;;;;;2.75;0.70;;;4.70;99.90;;;;;;4933317;29;20081;-81
2022/04/03 07:48:26;;;;;;;6.18;0.90;;;4.10;99.90;;;;;;4934889;29;20046;-81
2022/04/03 07:50:52;;;;;;;4.00;0.80;;;4.20;99.90;;;;;;4934696;29;20496;-82
2022/04/03 07:53:19;;;;;;;5.32;1.05;;;4.30;99.90;;;;;;4949434;29;20065;-81
2022/04/03 07:55:44;;;;;;;4.18;0.70;;;4.40;99.90;;;;;;4934843;29;20047;-81
2022/04/03 07:58:10;;;;;;;4.40;0.80;;;4.40;99.90;;;;;;4934557;29;20058;-80
2022/04/03 08:00:36;;;;;;;6.25;0.60;;;4.50;99.90;;;;;;4933185;29;20403;-80
2022/04/03 08:03:01;;;;;;;6.50;0.90;;;4.60;99.90;;;;;;4966708;28;20047;-81
2022/04/03 08:05:27;;;;;;;2.38;0.80;;;4.70;99.90;;;;;;4934059;29;20066;-80
2022/04/03 08:07:55;;;;;;;3.88;1.13;;;4.80;99.90;;;;;;4934518;29;20043;-81
2022/04/03 08:10:22;;;;;;;4.15;0.82;;;4.80;99.90;;;;;;4934406;29;20058;-80
2022/04/03 08:12:49;;;;;;;4.50;0.93;;;4.90;99.90;;;;;;4951043;29;20517;-81
2022/04/03 08:15:19;;;;;;;4.60;0.95;;;5.30;99.90;;;;;;4949308;28;20063;-81
2022/04/03 08:17:45;;;;;;;1.92;0.65;;;5.20;99.90;;;;;;4935286;29;20051;-81
2022/04/03 08:20:16;;;;;;;4.15;0.90;;;5.30;99.90;;;;;;4933644;29;20438;-81
2022/04/03 08:22:42;;;;;;;7.25;1.80;;;5.50;99.90;;;;;;4935016;29;20039;-81
2022/04/03 08:25:09;;;;;;;3.95;1.05;;;5.70;99.90;;;;;;4950272;29;20134;-81
2022/04/03 08:27:48;;;;;;;5.85;1.10;;;5.90;99.90;;;;;;4949916;29;20054;-81
2022/04/03 08:30:19;;;;;;;4.10;0.80;;;6.00;99.90;;;;;;4932849;29;20043;-80
2022/04/03 08:32:45;;;;;;;3.20;1.00;;;6.10;99.90;;;;;;4934691;29;20376;-80
2022/04/03 08:35:11;;;;;;;5.47;1.02;;;6.20;99.90;;;;;;4948951;29;20491;-81
2022/04/03 08:37:37;;;;;;;6.15;0.98;;;6.20;99.90;;;;;;4933756;29;20061;-80
2022/04/03 08:40:05;;;;;;;3.58;0.68;;;6.20;99.90;;;;;;4934048;29;20047;-80
2022/04/03 08:42:32;;;;;;;8.80;1.45;;;6.00;99.90;;;;;;4933446;29;20056;-81
2022/04/03 08:44:58;;;;;;;3.70;0.85;;;5.90;99.90;;;;;;4949371;29;20411;-80
2022/04/03 08:47:25;;;;;;;2.85;0.70;;;5.80;99.90;;;;;;4949553;29;20051;-80
2022/04/03 08:50:00;;;;;;;3.25;0.70;;;6.50;99.90;;;;;;4949331;29;20051;-80
2022/04/03 08:52:28;;;;;;;5.80;0.90;;;5.90;99.90;;;;;;4949821;29;20055;-80
2022/04/03 08:54:54;;;;;;;10.05;0.80;;;6.90;99.90;;;;;;4949345;28;20178;-80
2022/04/03 08:57:21;;;;;;;7.57;1.05;;;6.20;99.90;;;;;;4949421;29;20042;-80
2022/04/03 08:59:49;;;;;;;8.18;0.95;;;6.30;99.90;;;;;;4933438;29;20144;-79
2022/04/03 09:02:15;;;;;;;3.40;0.93;;;7.00;99.90;;;;;;4948458;29;20055;-79
2022/04/03 09:04:41;;;;;;;5.15;0.80;;;6.70;99.90;;;;;;4933842;29;20052;-79
2022/04/03 09:07:07;;;;;;;5.63;0.75;;;7.00;99.90;;;;;;4933895;29;20097;-79
2022/04/03 09:09:32;;;;;;;3.53;0.73;;;7.90;99.90;;;;;;4949451;29;20086;-79
2022/04/03 09:12:06;;;;;;;5.82;0.98;;;7.20;99.90;;;;;;4951279;29;20235;-79
2022/04/03 09:14:33;;;;;;;2.92;0.43;;;7.20;99.90;;;;;;4948402;29;20056;-78
2022/04/03 09:17:01;;;;;;;6.40;0.93;;;7.20;99.90;;;;;;4948815;29;20388;-79
2022/04/03 09:19:33;;;;;;;8.77;0.88;;;7.10;99.90;;;;;;4965160;28;20550;-79
2022/04/03 09:22:00;;;;;;;4.85;0.85;;;6.90;99.90;;;;;;4933462;29;20051;-80
2022/04/03 09:24:25;;;;;;;7.03;1.40;;;6.60;99.90;;;;;;4965116;28;20047;-81
2022/04/03 09:27:02;;;;;;;5.95;0.77;;;6.40;99.90;;;;;;4933751;29;20043;-81
2022/04/03 09:29:28;;;;;;;6.00;0.65;;;6.30;99.90;;;;;;4932700;29;20059;-82
2022/04/03 09:32:00;;;;;;;4.35;0.65;;;6.40;99.90;;;;;;4948299;29;20466;-81
2022/04/03 09:34:27;;;;;;;4.03;0.65;;;6.70;99.90;;;;;;4935224;28;20495;-81
2022/04/03 09:36:59;;;;;;;9.77;1.08;;;6.80;99.90;;;;;;4951526;28;20049;-80
2022/04/03 09:39:28;;;;;;;4.47;0.70;;;6.90;99.90;;;;;;4932912;28;20499;-80
2022/04/03 09:41:57;;;;;;;5.55;0.80;;;7.00;99.90;;;;;;4949729;28;20055;-80
2022/04/03 09:44:26;;;;;;;7.40;0.60;;;7.60;99.90;;;;;;4919328;29;20055;-80
2022/04/03 09:47:12;;;;;;;3.15;0.40;;;7.20;99.90;;;;;;4914723;29;20159;-80
2022/04/03 09:49:39;;;;;;;4.68;0.50;;;7.40;99.90;;;;;;4946563;29;20058;-80
2022/04/03 09:52:05;;;;;;;1.45;0.40;;;7.40;99.90;;;;;;4913733;29;20051;-80
2022/04/03 09:54:31;;;;;;;11.20;0.80;;;7.20;99.90;;;;;;4929622;29;20147;-79
2022/04/03 09:57:18;;;;;;;3.92;0.75;;;7.10;99.90;;;;;;4938502;28;20165;-79
2022/04/03 09:59:49;;;;;;;2.15;0.40;;;7.10;99.90;;;;;;4929316;28;20372;-80
2022/04/03 10:02:15;;;;;;;1.65;0.30;;;7.30;99.90;;;;;;4932787;28;20078;-80
2022/04/03 10:04:43;;;;;;;1.88;0.35;;;7.40;99.90;;;;;;4949068;28;20086;-80
2022/04/03 10:07:12;;;;;;;4.65;0.40;;;8.20;99.90;;;;;;4931755;28;20403;-80
2022/04/03 10:09:44;;;;;;;2.03;0.30;;;7.80;99.90;;;;;;4949419;28;20384;-80
2022/04/03 10:12:10;;;;;;;0.57;0.20;;;7.90;99.90;;;;;;4946278;28;20051;-80
2022/04/03 10:14:38;;;;;;;2.75;0.40;;;8.40;99.90;;;;;;4948163;28;20122;-81
2022/04/03 10:17:04;;;;;;;2.80;0.50;;;8.40;99.90;;;;;;4932200;29;20523;-81
2022/04/03 10:19:29;;;;;;;5.07;0.70;;;8.50;99.90;;;;;;4964742;28;20058;-81
2022/04/03 10:21:57;;;;;;;10.63;0.70;;;8.10;99.90;;;;;;4949877;28;20042;-80
2022/04/03 10:24:24;;;;;;;4.40;0.80;;;7.40;99.90;;;;;;4934011;28;20094;-81
2022/04/03 10:27:12;;;;;;;3.58;0.60;;;7.10;99.90;;;;;;4933785;28;20050;-81
2022/04/03 10:29:38;;;;;;;2.05;0.68;;;7.10;99.90;;;;;;4948950;28;20035;-81
2022/04/03 10:32:06;;;;;;;5.25;0.85;;;7.90;99.90;;;;;;4949956;28;20078;-81
2022/04/03 10:34:44;;;;;;;3.58;0.73;;;7.50;99.90;;;;;;4932982;28;20057;-81
2022/04/03 10:37:26;;;;;;;5.00;0.77;;;7.70;99.90;;;;;;4948814;28;20046;-80
2022/04/03 10:39:54;;;;;;;4.80;0.52;;;7.90;99.90;;;;;;4949124;28;20585;-80
2022/04/03 10:42:25;;;;;;;6.22;0.70;;;8.20;99.90;;;;;;4930863;28;20042;-81
2022/04/03 10:45:11;;;;;;;5.50;0.90;;;8.40;99.90;;;;;;4932798;28;20517;-80
2022/04/03 10:47:37;;;;;;;2.88;0.80;;;8.60;99.90;;;;;;4965149;28;20050;-80
2022/04/03 10:50:05;;;;;;;2.67;0.50;;;8.80;99.90;;;;;;4949819;28;20076;-80
2022/04/03 10:52:36;;;;;;;2.95;0.73;;;9.00;99.90;;;;;;4950869;28;20050;-81
2022/04/03 10:55:12;;;;;;;7.65;0.77;;;9.50;99.90;;;;;;4933672;28;20094;-81
2022/04/03 10:57:45;;;;;;;6.05;0.88;;;8.40;99.90;;;;;;4950237;28;20450;-80
2022/04/03 11:00:13;;;;;;;6.90;0.80;;;7.70;99.90;;;;;;4950464;28;20062;-80
2022/04/03 11:02:41;;;;;;;4.80;0.75;;;7.50;99.90;;;;;;4937920;28;20493;-80
2022/04/03 11:05:22;;;;;;;2.20;0.40;;;7.70;99.90;;;;;;4951436;28;20450;-81
2022/04/03 11:07:50;;;;;;;2.88;0.40;;;6.40;99.90;;;;;;4952612;28;20101;-81
2022/04/03 11:10:53;;;;;;;2.30;0.50;;;6.20;99.90;;;;;;4936540;28;20403;-82
2022/04/03 11:13:30;;;;;;;1.50;0.50;;;6.00;99.90;;;;;;4953014;28;20043;-81
2022/04/03 11:16:00;;;;;;;1.65;0.40;;;6.00;99.90;;;;;;4935641;28;20058;-81
2022/04/03 11:18:28;;;;;;;3.90;0.80;;;6.10;99.90;;;;;;4937591;28;20047;-81
2022/04/03 11:21:07;;;;;;;1.92;0.30;;;6.20;99.90;;;;;;4952923;28;20397;-82
2022/04/03 11:23:36;;;;;;;3.92;0.43;;;6.40;99.90;;;;;;4936822;28;20058;-82
2022/04/03 11:26:03;;;;;;;1.77;0.50;;;6.50;99.90;;;;;;4953303;28;20566;-82
2022/04/03 11:28:29;;;;;;;4.20;0.40;;;7.50;99.90;;;;;;4937025;28;20491;-83
2022/04/03 11:30:55;;;;;;;3.72;0.70;;;7.90;99.90;;;;;;4951810;28;20042;-85
2022/04/03 11:33:21;;;;;;;3.05;0.50;;;7.60;99.90;;;;;;4954516;28;20157;-82
2022/04/03 11:35:47;;;;;;;3.33;0.70;;;7.60;99.90;;;;;;4952873;28;20113;-82
2022/04/03 11:38:15;;;;;;;2.10;0.47;;;7.50;99.90;;;;;;4952216;28;20039;-83
2022/04/03 11:40:42;;;;;;;6.43;0.57;;;7.40;99.90;;;;;;4937238;28;20047;-83
2022/04/03 11:43:09;;;;;;;6.22;0.70;;;7.40;99.90;;;;;;4935047;29;20102;-83
2022/04/03 11:45:35;;;;;;;3.08;0.45;;;7.50;99.90;;;;;;4966381;28;20202;-82
2022/04/03 11:48:18;;;;;;;2.72;0.57;;;7.40;99.90;;;;;;4935040;29;20043;-81
2022/04/03 11:50:44;;;;;;;3.05;0.60;;;7.50;99.90;;;;;;4934678;29;20435;-82
2022/04/03 11:53:10;;;;;;;5.60;0.50;;;8.20;99.90;;;;;;4934940;29;20138;-82
2022/04/03 11:55:36;;;;;;;4.10;0.60;;;8.40;99.90;;;;;;4966684;28;20352;-82
2022/04/03 11:58:04;;;;;;;3.72;0.68;;;7.70;99.90;;;;;;4934474;29;20051;-82
2022/04/03 12:00:31;;;;;;;2.90;0.50;;;7.90;99.90;;;;;;4965650;28;20411;-82
2022/04/03 12:02:59;;;;;;;5.70;0.63;;;8.20;99.90;;;;;;4952760;29;20106;-82
2022/04/03 12:05:25;;;;;;;2.20;0.50;;;8.20;99.90;;;;;;4965591;28;20496;-81
2022/04/03 12:07:52;;;;;;;2.78;0.55;;;9.30;99.90;;;;;;4952864;29;20054;-81
2022/04/03 12:10:26;;;;;;;2.42;0.60;;;8.40;99.90;;;;;;4934045;28;20048;-82
2022/04/03 12:12:53;;;;;;;4.80;0.90;;;8.20;99.90;;;;;;4933631;29;20113;-81
2022/04/03 12:15:22;;;;;;;3.72;0.63;;;8.40;99.90;;;;;;4932886;28;20043;-81
2022/04/03 12:17:54;;;;;;;5.03;1.05;;;8.00;99.90;;;;;;4951145;29;20051;-81
2022/04/03 12:20:20;;;;;;;5.22;0.98;;;8.20;99.90;;;;;;4933048;29;20078;-81
2022/04/03 12:22:50;;;;;;;2.80;0.75;;;9.00;99.90;;;;;;4934826;29;20091;-82
2022/04/03 12:25:16;;;;;;;4.85;0.82;;;8.30;99.90;;;;;;4933379;29;20401;-81
2022/04/03 12:27:42;;;;;;;3.88;0.60;;;8.10;99.90;;;;;;4950037;29;20504;-81
2022/04/03 12:30:10;;;;;;;2.95;0.60;;;8.00;99.90;;;;;;4948981;29;20047;-80
2022/04/03 12:32:39;;;;;;;2.05;0.50;;;7.90;99.90;;;;;;4950595;29;20059;-80
2022/04/03 12:35:07;;;;;;;4.45;0.50;;;7.80;99.90;;;;;;4965592;28;20106;-81
2022/04/03 12:37:34;;;;;;;4.78;1.15;;;7.80;99.90;;;;;;4950865;29;20402;-80
2022/04/03 12:40:00;;;;;;;3.50;0.82;;;7.80;99.90;;;;;;4933192;29;20054;-79
2022/04/03 12:42:32;;;;;;;1.42;0.65;;;7.70;99.90;;;;;;4933841;29;20047;-80
2022/04/03 12:45:17;;;;;;;4.03;0.70;;;7.70;99.90;;;;;;4949603;29;20062;-80
2022/04/03 12:47:46;;;;;;;5.28;0.90;;;7.50;99.90;;;;;;4933380;29;20051;-80
2022/04/03 12:50:16;;;;;;;4.00;0.73;;;7.50;99.90;;;;;;4949340;29;20063;-80
2022/04/03 12:52:47;;;;;;;6.82;0.90;;;7.40;99.90;;;;;;4933829;29;20142;-81